Time;durP1;ratioP1;P1;durP2;ratioP2;P2;SDS_P1;SDS_P2;PMS_P1;PMS_P2;Temp;Humidity;BMP_temperature;BMP_pressure;BME280_temperature;BME280_humidity;BME280_pressure;Samples;Min_cycle;Max_cycle;Signal;HPM_P1;HPM_P2
2023/02/03 00:01:07;;;;;;;6.27;1.20;;;9.00;99.90;;;;;;5042647;28;20243;-86
2023/02/03 00:03:33;;;;;;;2.73;0.87;;;9.00;99.90;;;;;;5076413;28;20255;-88
2023/02/03 00:06:00;;;;;;;0.73;0.73;;;9.00;99.90;;;;;;5042284;28;20200;-88
2023/02/03 00:08:26;;;;;;;1.60;1.17;;;8.90;99.90;;;;;;5076506;28;20192;-88
2023/02/03 00:10:53;;;;;;;0.30;0.30;;;9.00;99.90;;;;;;5074785;28;20178;-89
2023/02/03 00:13:19;;;;;;;0.77;0.77;;;8.90;99.90;;;;;;5055689;28;20178;-87
2023/02/03 00:15:45;;;;;;;9.07;1.10;;;8.90;99.90;;;;;;5055689;28;20236;-88
2023/02/03 00:18:10;;;;;;;0.20;0.20;;;8.90;99.90;;;;;;5038789;28;20414;-85
2023/02/03 00:20:36;;;;;;;1.30;0.60;;;8.90;99.90;;;;;;5054872;28;20187;-86
2023/02/03 00:23:07;;;;;;;4.07;1.07;;;8.90;99.90;;;;;;5039113;28;20215;-88
2023/02/03 00:25:33;;;;;;;1.50;1.33;;;8.90;99.90;;;;;;5073262;28;20177;-88
2023/02/03 00:27:59;;;;;;;0.50;0.50;;;8.90;99.90;;;;;;5055311;28;20580;-87
2023/02/03 00:30:25;;;;;;;0.57;0.40;;;8.90;99.90;;;;;;5038986;28;20181;-88
2023/02/03 00:32:51;;;;;;;8.10;1.03;;;8.90;99.90;;;;;;5072687;28;20798;-88
2023/02/03 00:35:16;;;;;;;0.50;0.50;;;9.00;99.90;;;;;;5054721;28;20181;-87
2023/02/03 00:37:42;;;;;;;1.07;0.50;;;9.00;99.90;;;;;;5038301;28;20206;-87
2023/02/03 00:40:08;;;;;;;0.67;0.67;;;9.00;99.90;;;;;;5022257;28;20178;-88
2023/02/03 00:42:35;;;;;;;1.50;1.23;;;9.00;99.90;;;;;;5038809;28;20177;-87
2023/02/03 00:45:01;;;;;;;8.63;1.13;;;9.00;99.90;;;;;;5038523;28;20234;-88
2023/02/03 00:47:27;;;;;;;9.23;1.37;;;9.00;99.90;;;;;;5054905;28;20234;-88
2023/02/03 00:49:53;;;;;;;0.17;0.17;;;9.00;99.90;;;;;;5022019;28;20550;-87
2023/02/03 00:52:18;;;;;;;2.33;0.73;;;9.00;99.90;;;;;;5054378;28;20173;-87
2023/02/03 00:54:44;;;;;;;1.70;0.63;;;9.00;99.90;;;;;;5037530;28;20186;-88
2023/02/03 00:57:10;;;;;;;1.37;1.33;;;9.10;99.90;;;;;;5053964;28;20273;-89
2023/02/03 00:59:35;;;;;;;5.43;1.30;;;9.10;99.90;;;;;;5053755;28;20558;-87
2023/02/03 01:02:01;;;;;;;1.43;0.60;;;9.00;99.90;;;;;;5053875;28;20632;-87
2023/02/03 01:04:27;;;;;;;1.63;0.40;;;9.00;99.90;;;;;;5053323;28;20233;-87
2023/02/03 01:06:57;;;;;;;0.20;0.20;;;9.00;99.90;;;;;;5053658;28;20182;-87
2023/02/03 01:09:25;;;;;;;5.00;0.50;;;9.10;99.90;;;;;;5037679;28;20204;-86
2023/02/03 01:11:51;;;;;;;3.23;1.10;;;9.10;99.90;;;;;;5037895;28;20184;-87
2023/02/03 01:14:17;;;;;;;0.17;0.17;;;9.10;99.90;;;;;;5037948;28;20570;-87
2023/02/03 01:16:43;;;;;;;3.17;1.33;;;9.10;99.90;;;;;;5037711;28;20181;-87
2023/02/03 01:19:08;;;;;;;2.57;0.50;;;9.20;99.90;;;;;;5054252;28;20221;-89
2023/02/03 01:21:35;;;;;;;0.30;0.30;;;9.20;99.90;;;;;;5071637;28;20185;-87
2023/02/03 01:24:01;;;;;;;1.40;1.40;;;9.20;99.90;;;;;;5020176;28;20173;-87
2023/02/03 01:26:27;;;;;;;1.17;1.07;;;9.20;99.90;;;;;;5053959;28;20178;-87
2023/02/03 01:28:55;;;;;;;1.37;0.70;;;9.20;99.90;;;;;;5053325;28;20218;-87
2023/02/03 01:31:30;;;;;;;4.20;0.70;;;9.20;99.90;;;;;;5053888;28;20251;-87
2023/02/03 01:33:56;;;;;;;2.20;1.53;;;9.20;99.90;;;;;;5053636;28;20188;-87
2023/02/03 01:36:24;;;;;;;1.10;1.03;;;9.20;99.90;;;;;;5070191;28;20651;-86
2023/02/03 01:38:50;;;;;;;0.23;0.23;;;9.20;99.90;;;;;;5070681;28;20209;-87
2023/02/03 01:41:20;;;;;;;1.13;0.87;;;9.20;99.90;;;;;;5053099;28;20185;-86
2023/02/03 01:43:49;;;;;;;3.03;1.23;;;9.20;99.90;;;;;;5053235;28;20170;-88
2023/02/03 01:46:23;;;;;;;4.87;0.73;;;9.20;99.90;;;;;;5070792;28;20802;-86
2023/02/03 01:48:51;;;;;;;2.83;1.03;;;9.20;99.90;;;;;;5071444;28;20367;-86
2023/02/03 01:51:18;;;;;;;0.10;0.10;;;9.10;99.90;;;;;;5071308;28;20173;-88
2023/02/03 01:53:44;;;;;;;0.37;0.37;;;9.10;99.90;;;;;;5036339;28;20177;-86
2023/02/03 01:56:10;;;;;;;0.27;0.27;;;9.10;99.90;;;;;;5053413;28;20185;-86
2023/02/03 01:58:39;;;;;;;5.53;0.80;;;9.10;99.90;;;;;;5053393;28;20205;-87
2023/02/03 02:01:05;;;;;;;2.20;0.43;;;9.00;99.90;;;;;;5071059;28;20271;-88
2023/02/03 02:03:35;;;;;;;4.80;0.53;;;9.10;99.90;;;;;;5036810;28;20260;-87
2023/02/03 02:06:07;;;;;;;4.47;1.00;;;9.00;99.90;;;;;;5071192;28;20209;-86
2023/02/03 02:08:33;;;;;;;0.40;0.40;;;9.10;99.90;;;;;;5053485;28;20170;-90
2023/02/03 02:11:00;;;;;;;3.03;0.80;;;9.10;99.90;;;;;;5020251;28;20182;-85
2023/02/03 02:13:28;;;;;;;1.80;0.97;;;9.10;99.90;;;;;;5053293;28;20173;-87
2023/02/03 02:16:15;;;;;;;3.83;1.60;;;9.10;99.90;;;;;;5053320;28;20173;-87
2023/02/03 02:18:59;;;;;;;8.90;1.13;;;9.10;99.90;;;;;;5053051;28;20265;-87
2023/02/03 02:21:31;;;;;;;0.23;0.23;;;9.10;99.90;;;;;;5053220;28;20180;-89
2023/02/03 02:24:03;;;;;;;0.40;0.40;;;9.10;99.90;;;;;;5053300;28;20181;-87
2023/02/03 02:26:53;;;;;;;2.23;0.50;;;9.00;99.90;;;;;;5052882;28;20174;-89
2023/02/03 02:29:56;;;;;;;0.87;0.67;;;9.10;99.90;;;;;;5053391;28;20682;-87
2023/02/03 02:32:52;;;;;;;0.57;0.57;;;9.00;99.90;;;;;;5053216;28;20205;-86
2023/02/03 02:35:40;;;;;;;2.67;1.33;;;9.00;99.90;;;;;;5039297;28;20178;-88
2023/02/03 02:38:22;;;;;;;3.43;0.50;;;9.00;99.90;;;;;;5070456;28;20203;-88
2023/02/03 02:40:51;;;;;;;2.00;1.90;;;9.00;99.90;;;;;;5052996;28;20173;-88
2023/02/03 02:43:31;;;;;;;2.50;1.83;;;8.90;99.90;;;;;;5052720;28;20178;-88
2023/02/03 02:46:08;;;;;;;2.47;1.30;;;8.90;99.90;;;;;;5070768;28;20193;-87
2023/02/03 02:48:45;;;;;;;0.70;0.70;;;8.90;99.90;;;;;;5070345;28;20635;-86
2023/02/03 02:51:14;;;;;;;1.83;1.73;;;8.90;99.90;;;;;;5052977;28;20169;-88
2023/02/03 02:53:49;;;;;;;0.80;0.80;;;9.00;99.90;;;;;;5036231;28;20178;-86
2023/02/03 02:56:17;;;;;;;8.23;1.20;;;9.00;99.90;;;;;;5052837;28;20653;-89
2023/02/03 02:58:46;;;;;;;1.40;1.03;;;9.00;99.90;;;;;;5036054;28;20197;-87
2023/02/03 03:01:12;;;;;;;0.60;0.60;;;9.00;99.90;;;;;;5052166;28;20177;-87
2023/02/03 03:03:41;;;;;;;1.57;0.30;;;9.00;99.90;;;;;;5015950;28;20286;-88
2023/02/03 03:06:38;;;;;;;0.40;0.40;;;9.00;99.90;;;;;;5017336;28;20186;-84
2023/02/03 03:09:15;;;;;;;0.40;0.40;;;9.00;99.90;;;;;;5048368;28;20657;-89
2023/02/03 03:11:54;;;;;;;1.80;0.80;;;9.00;99.90;;;;;;5049546;28;20497;-87
2023/02/03 03:14:24;;;;;;;1.77;0.73;;;9.00;99.90;;;;;;5049227;28;20267;-88
2023/02/03 03:16:54;;;;;;;4.00;1.47;;;9.00;99.90;;;;;;5048704;28;20207;-88
2023/02/03 03:19:24;;;;;;;4.50;1.17;;;9.10;99.90;;;;;;5049107;28;20202;-86
2023/02/03 03:21:54;;;;;;;1.67;1.53;;;9.10;99.90;;;;;;5048973;28;20202;-87
2023/02/03 03:24:29;;;;;;;3.00;1.57;;;9.10;99.90;;;;;;5048936;28;20229;-85
2023/02/03 03:27:22;;;;;;;4.13;0.93;;;9.10;99.90;;;;;;5050042;28;20754;-86
2023/02/03 03:30:01;;;;;;;6.43;1.30;;;9.00;99.90;;;;;;5049968;28;20177;-87
2023/02/03 03:32:31;;;;;;;1.03;0.70;;;9.10;99.90;;;;;;5049484;28;20165;-84
2023/02/03 03:34:57;;;;;;;1.73;1.37;;;9.10;99.90;;;;;;5033286;28;20368;-87
2023/02/03 03:37:36;;;;;;;6.33;0.60;;;9.00;99.90;;;;;;5049357;28;20210;-86
2023/02/03 03:40:15;;;;;;;12.03;1.63;;;9.00;99.90;;;;;;5049387;28;20642;-86
2023/02/03 03:42:50;;;;;;;7.53;0.43;;;9.00;99.90;;;;;;5049728;28;20257;-87
2023/02/03 03:45:19;;;;;;;6.87;0.40;;;9.00;99.90;;;;;;5049736;28;20558;-87
2023/02/03 03:47:50;;;;;;;3.33;0.80;;;9.00;99.90;;;;;;5052740;28;20587;-87
2023/02/03 03:50:20;;;;;;;0.40;0.40;;;9.10;99.90;;;;;;5052363;28;20269;-85
2023/02/03 03:52:48;;;;;;;0.50;0.30;;;9.10;99.90;;;;;;5053784;28;20208;-85
2023/02/03 03:55:17;;;;;;;0.40;0.23;;;9.10;99.90;;;;;;5053861;28;20197;-88
2023/02/03 03:58:06;;;;;;;0.93;0.50;;;9.10;99.90;;;;;;5052375;28;20271;-86
2023/02/03 04:00:35;;;;;;;1.20;1.20;;;9.10;99.90;;;;;;5053394;28;20174;-86
2023/02/03 04:03:07;;;;;;;0.37;0.37;;;9.10;99.90;;;;;;5059144;28;20276;-86
2023/02/03 04:05:33;;;;;;;1.03;0.50;;;9.10;99.90;;;;;;5073453;28;20178;-86
2023/02/03 04:07:59;;;;;;;0.73;0.73;;;9.10;99.90;;;;;;5039265;28;20284;-86
2023/02/03 04:10:31;;;;;;;1.20;0.37;;;9.10;99.90;;;;;;5055929;28;20280;-88
2023/02/03 04:12:57;;;;;;;4.13;2.87;;;9.10;99.90;;;;;;5073307;28;20166;-86
2023/02/03 04:15:23;;;;;;;2.07;1.50;;;9.10;99.90;;;;;;5038493;28;20181;-87
2023/02/03 04:17:49;;;;;;;1.60;1.50;;;9.10;99.90;;;;;;5073173;28;20193;-87
2023/02/03 04:20:15;;;;;;;0.73;0.73;;;9.00;99.90;;;;;;5055450;28;20181;-87
2023/02/03 04:22:41;;;;;;;4.97;2.00;;;9.00;99.90;;;;;;5054871;28;20688;-86
2023/02/03 04:25:07;;;;;;;2.63;0.53;;;9.00;99.90;;;;;;5055392;28;20206;-86
2023/02/03 04:27:34;;;;;;;2.83;1.20;;;9.00;99.90;;;;;;5072527;28;20189;-88
2023/02/03 04:30:00;;;;;;;1.30;0.73;;;9.00;99.90;;;;;;5072858;28;20181;-86
2023/02/03 04:32:26;;;;;;;4.40;2.97;;;9.00;99.90;;;;;;5072769;28;20534;-85
2023/02/03 04:34:52;;;;;;;0.63;0.33;;;9.00;99.90;;;;;;5038604;28;20178;-88
2023/02/03 04:37:18;;;;;;;0.57;0.57;;;9.00;99.90;;;;;;5038582;28;20223;-86
2023/02/03 04:39:44;;;;;;;0.40;0.40;;;9.00;99.90;;;;;;5038707;28;20643;-87
2023/02/03 04:42:09;;;;;;;1.53;0.63;;;8.90;99.90;;;;;;5055116;28;20212;-87
2023/02/03 04:44:35;;;;;;;13.57;0.87;;;8.90;99.90;;;;;;5038178;28;20182;-86
2023/02/03 04:47:01;;;;;;;2.00;1.23;;;9.00;99.90;;;;;;5021962;28;20260;-87
2023/02/03 04:49:26;;;;;;;0.30;0.30;;;9.00;99.90;;;;;;5054777;28;20315;-87
2023/02/03 04:51:52;;;;;;;0.40;0.40;;;9.00;99.90;;;;;;5055051;28;20633;-88
2023/02/03 04:54:18;;;;;;;3.30;0.67;;;9.00;99.90;;;;;;5038320;28;20190;-87
2023/02/03 04:56:43;;;;;;;1.83;0.40;;;9.00;99.90;;;;;;5021283;28;20185;-86
2023/02/03 04:59:09;;;;;;;4.13;0.60;;;9.10;99.90;;;;;;5037977;28;20205;-87
2023/02/03 05:01:35;;;;;;;1.53;0.60;;;9.10;99.90;;;;;;5021771;28;20253;-86
2023/02/03 05:04:01;;;;;;;1.00;1.00;;;9.20;99.90;;;;;;5021527;28;20217;-88
2023/02/03 05:06:28;;;;;;;4.63;1.43;;;9.20;99.90;;;;;;5037773;28;20686;-87
2023/02/03 05:08:54;;;;;;;1.00;0.90;;;9.30;99.90;;;;;;5072092;28;20182;-87
2023/02/03 05:11:21;;;;;;;1.57;0.77;;;9.20;99.90;;;;;;5054642;28;20181;-87
2023/02/03 05:13:47;;;;;;;0.33;0.33;;;9.20;99.90;;;;;;5054426;28;20268;-87
2023/02/03 05:16:13;;;;;;;2.60;1.03;;;9.20;99.90;;;;;;5037894;28;20268;-86
2023/02/03 05:18:39;;;;;;;4.90;1.33;;;9.20;99.90;;;;;;5054117;28;20204;-87
2023/02/03 05:21:05;;;;;;;0.63;0.60;;;9.20;99.90;;;;;;5037960;28;20177;-87
2023/02/03 05:23:31;;;;;;;1.73;0.83;;;9.30;99.90;;;;;;5021302;28;20204;-87
2023/02/03 05:25:57;;;;;;;2.10;1.37;;;9.30;99.90;;;;;;5054683;28;20605;-87
2023/02/03 05:28:23;;;;;;;4.57;1.53;;;9.30;99.90;;;;;;5071916;28;20202;-87
2023/02/03 05:30:49;;;;;;;18.20;1.23;;;9.30;99.90;;;;;;5037830;28;20181;-88
2023/02/03 05:33:14;;;;;;;1.70;1.60;;;9.30;99.90;;;;;;5037397;28;20246;-87
2023/02/03 05:35:40;;;;;;;6.07;0.80;;;9.30;99.90;;;;;;5053823;28;20538;-87
2023/02/03 05:38:06;;;;;;;2.00;0.37;;;9.30;99.90;;;;;;5037114;28;20211;-86
2023/02/03 05:43:16;;;;;;;1.50;1.40;;;9.30;99.90;;;;;;5056441;28;20174;-87
2023/02/03 05:45:42;;;;;;;2.00;0.97;;;9.20;99.90;;;;;;5051821;28;20749;-87
2023/02/03 05:48:08;;;;;;;7.50;0.60;;;9.20;99.90;;;;;;5052728;28;20186;-90
2023/02/03 05:50:35;;;;;;;1.53;1.13;;;9.20;99.90;;;;;;5052734;28;20200;-90
2023/02/03 05:53:02;;;;;;;0.57;0.57;;;9.20;99.90;;;;;;5053523;28;20173;-90
2023/02/03 05:55:29;;;;;;;2.90;1.97;;;9.10;99.90;;;;;;5070555;28;20166;-90
2023/02/03 05:57:55;;;;;;;0.40;0.40;;;9.10;99.90;;;;;;5036053;28;20301;-92
2023/02/03 06:00:21;;;;;;;8.83;1.03;;;9.10;99.90;;;;;;5054754;28;20181;-88
2023/02/03 06:02:56;;;;;;;7.90;2.93;;;9.20;99.90;;;;;;5052528;28;20663;-88
2023/02/03 06:05:23;;;;;;;3.70;2.00;;;9.10;99.90;;;;;;5053191;28;20665;-88
2023/02/03 06:07:49;;;;;;;1.77;1.63;;;9.10;99.90;;;;;;5052717;28;20272;-88
2023/02/03 06:10:16;;;;;;;4.27;1.10;;;9.10;99.90;;;;;;5052603;28;20224;-86
2023/02/03 06:12:42;;;;;;;5.10;1.00;;;9.00;99.90;;;;;;5035563;28;20273;-89
2023/02/03 06:15:08;;;;;;;0.87;0.87;;;9.00;99.90;;;;;;5036787;28;20174;-90
2023/02/03 06:17:35;;;;;;;0.27;0.27;;;9.00;99.90;;;;;;5053413;28;20212;-93
2023/02/03 06:20:08;;;;;;;1.07;0.67;;;9.00;99.90;;;;;;5046195;28;20196;-90
2023/02/03 06:22:34;;;;;;;1.30;1.23;;;8.90;99.90;;;;;;5036190;28;20191;-91
2023/02/03 06:25:00;;;;;;;1.93;1.57;;;8.90;99.90;;;;;;5035572;28;20170;-89
2023/02/03 06:27:26;;;;;;;2.37;1.33;;;8.90;99.90;;;;;;5036115;28;20443;-89
2023/02/03 06:29:52;;;;;;;4.53;1.37;;;8.90;99.90;;;;;;5052051;28;20182;-89
2023/02/03 06:32:17;;;;;;;0.67;0.53;;;8.90;99.90;;;;;;5035317;28;20252;-89
2023/02/03 06:34:43;;;;;;;4.43;1.23;;;8.90;99.90;;;;;;5019904;28;20177;-92
2023/02/03 06:37:09;;;;;;;2.33;2.23;;;9.00;99.90;;;;;;5035970;28;20530;-91
2023/02/03 06:39:35;;;;;;;11.13;1.33;;;8.90;99.90;;;;;;5052541;28;20177;-89
2023/02/03 06:42:01;;;;;;;1.07;1.07;;;8.90;99.90;;;;;;5019751;28;20581;-90
2023/02/03 06:44:27;;;;;;;3.07;0.57;;;8.90;99.90;;;;;;5052546;28;20209;-87
2023/02/03 06:46:53;;;;;;;3.30;1.40;;;8.90;99.90;;;;;;5019958;28;20173;-90
2023/02/03 06:49:22;;;;;;;0.90;0.90;;;8.90;99.90;;;;;;5035500;28;20181;-90
2023/02/03 06:51:47;;;;;;;7.77;1.70;;;8.90;99.90;;;;;;5028039;28;20185;-89
2023/02/03 06:54:14;;;;;;;1.57;1.27;;;8.90;99.90;;;;;;5021704;28;20665;-95
2023/02/03 06:56:42;;;;;;;19.73;0.97;;;8.90;99.90;;;;;;5052772;28;20177;-88
2023/02/03 06:59:09;;;;;;;1.93;1.53;;;8.90;99.90;;;;;;5070656;28;20197;-91
2023/02/03 07:01:36;;;;;;;4.37;1.20;;;9.00;99.90;;;;;;5052189;28;20182;-89
2023/02/03 07:04:02;;;;;;;0.80;0.80;;;9.00;99.90;;;;;;5052917;28;20349;-89
2023/02/03 07:06:30;;;;;;;4.30;2.30;;;9.00;99.90;;;;;;5052588;28;20623;-91
2023/02/03 07:08:57;;;;;;;1.33;0.90;;;9.00;99.90;;;;;;5052197;28;20263;-89
2023/02/03 07:11:24;;;;;;;2.40;2.10;;;9.00;99.90;;;;;;5052234;28;20174;-89
2023/02/03 07:13:50;;;;;;;0.50;0.50;;;9.10;99.90;;;;;;5072068;28;20209;-92
2023/02/03 07:16:17;;;;;;;4.50;1.63;;;9.10;99.90;;;;;;5052560;28;20280;-92
2023/02/03 07:18:43;;;;;;;2.13;1.70;;;9.10;99.90;;;;;;5053702;28;20201;-95
2023/02/03 07:21:09;;;;;;;0.17;0.13;;;9.00;99.90;;;;;;5055732;28;20264;-91
2023/02/03 07:23:35;;;;;;;6.60;1.27;;;9.00;99.90;;;;;;5075941;28;20672;-89
2023/02/03 07:26:05;;;;;;;2.10;1.03;;;9.00;99.90;;;;;;5040948;28;20268;-91
2023/02/03 07:28:34;;;;;;;2.57;1.70;;;9.00;99.90;;;;;;5056281;28;20172;-92
2023/02/03 07:31:03;;;;;;;2.67;1.07;;;9.00;99.90;;;;;;5074073;28;20195;-91
2023/02/03 07:33:29;;;;;;;2.47;2.13;;;9.00;99.90;;;;;;5074089;28;20178;-88
2023/02/03 07:35:58;;;;;;;0.80;0.80;;;8.90;99.90;;;;;;5055832;28;20189;-91
2023/02/03 07:38:25;;;;;;;9.13;1.10;;;8.90;99.90;;;;;;5055879;28;20292;-91
2023/02/03 07:40:51;;;;;;;0.50;0.50;;;8.90;99.90;;;;;;5055027;28;20185;-89
2023/02/03 07:43:17;;;;;;;1.27;1.10;;;9.00;99.90;;;;;;5056978;28;20173;-89
2023/02/03 07:45:44;;;;;;;2.00;0.83;;;9.00;99.90;;;;;;5054472;28;20199;-93
2023/02/03 07:48:09;;;;;;;2.00;1.80;;;9.00;99.90;;;;;;5072772;28;20182;-90
2023/02/03 07:50:38;;;;;;;6.90;1.37;;;8.90;99.90;;;;;;5038392;28;20603;-88
2023/02/03 07:53:06;;;;;;;3.47;1.30;;;8.90;99.90;;;;;;5034900;28;20586;-89
2023/02/03 07:55:31;;;;;;;0.77;0.77;;;8.80;99.90;;;;;;5053521;28;20615;-89
2023/02/03 07:57:58;;;;;;;1.90;1.80;;;8.80;99.90;;;;;;5072748;28;20201;-88
2023/02/03 08:00:25;;;;;;;8.47;0.97;;;8.80;99.90;;;;;;5055618;28;20173;-87
2023/02/03 08:02:51;;;;;;;3.33;0.57;;;8.70;99.90;;;;;;5071931;28;20173;-88
2023/02/03 08:05:18;;;;;;;11.03;2.13;;;8.70;99.90;;;;;;5037577;28;20227;-87
2023/02/03 08:07:45;;;;;;;3.40;1.57;;;8.70;99.90;;;;;;5072887;28;20178;-88
2023/02/03 08:10:12;;;;;;;0.97;0.97;;;8.70;99.90;;;;;;5053185;28;20177;-93
2023/02/03 08:12:45;;;;;;;4.63;1.87;;;8.70;99.90;;;;;;5054757;28;20173;-92
2023/02/03 08:15:12;;;;;;;6.40;2.13;;;8.70;99.90;;;;;;5037295;28;20318;-90
2023/02/03 08:17:41;;;;;;;9.23;1.23;;;8.80;99.90;;;;;;5071688;28;20299;-93
2023/02/03 08:20:10;;;;;;;4.33;1.57;;;8.80;99.90;;;;;;5039159;28;20186;-91
2023/02/03 08:22:36;;;;;;;1.60;1.13;;;9.00;99.90;;;;;;5037049;28;20224;-91
2023/02/03 08:25:02;;;;;;;3.60;1.20;;;9.20;99.90;;;;;;5037080;28;20182;-90
2023/02/03 08:27:30;;;;;;;11.90;2.93;;;9.30;99.90;;;;;;5037636;28;20177;-91
2023/02/03 08:29:56;;;;;;;4.27;3.67;;;9.40;99.90;;;;;;5054098;28;20266;-91
2023/02/03 08:32:22;;;;;;;11.10;2.47;;;9.40;99.90;;;;;;5053946;28;20657;-90
2023/02/03 08:34:48;;;;;;;4.00;2.47;;;9.40;99.90;;;;;;5072454;28;20178;-87
2023/02/03 08:37:16;;;;;;;2.67;1.17;;;9.40;99.90;;;;;;5051208;28;20196;-90
2023/02/03 08:39:42;;;;;;;6.90;1.60;;;9.40;99.90;;;;;;5057288;28;20185;-90
2023/02/03 08:42:09;;;;;;;2.10;0.87;;;9.40;99.90;;;;;;5058796;28;20238;-88
2023/02/03 08:44:35;;;;;;;3.10;0.80;;;9.40;99.90;;;;;;5071678;28;20664;-92
2023/02/03 08:47:01;;;;;;;3.10;0.83;;;9.40;99.90;;;;;;5038320;28;20169;-90
2023/02/03 08:49:28;;;;;;;0.77;0.73;;;9.40;99.90;;;;;;5054072;28;20176;-89
2023/02/03 08:51:55;;;;;;;0.87;0.87;;;9.40;99.90;;;;;;5054443;28;20358;-90
2023/02/03 08:54:21;;;;;;;5.40;1.87;;;9.40;99.90;;;;;;5038360;28;20204;-88
2023/02/03 08:56:47;;;;;;;10.10;1.37;;;9.40;99.90;;;;;;5072609;28;20178;-89
2023/02/03 08:59:14;;;;;;;0.77;0.70;;;9.40;99.90;;;;;;5054285;28;20209;-88
2023/02/03 09:01:43;;;;;;;7.03;0.80;;;9.40;99.90;;;;;;5055457;28;20200;-91
2023/02/03 09:04:09;;;;;;;2.27;1.63;;;9.40;99.90;;;;;;5055199;28;20706;-91
2023/02/03 09:06:36;;;;;;;2.27;1.33;;;9.40;99.90;;;;;;5040607;28;20745;-90
2023/02/03 09:09:02;;;;;;;2.40;1.90;;;9.40;99.90;;;;;;5042258;28;20188;-92
2023/02/03 09:11:28;;;;;;;1.50;1.40;;;9.40;99.90;;;;;;5053090;28;20180;-89
2023/02/03 09:13:56;;;;;;;7.27;2.40;;;9.40;99.90;;;;;;5075816;28;20170;-89
2023/02/03 09:16:23;;;;;;;0.70;0.70;;;9.30;99.90;;;;;;5084365;28;20346;-91
2023/02/03 09:18:49;;;;;;;2.80;2.43;;;9.40;99.90;;;;;;5052787;28;20224;-92
2023/02/03 09:21:16;;;;;;;4.30;1.67;;;9.30;99.90;;;;;;5055859;28;20261;-91
2023/02/03 09:23:43;;;;;;;4.37;1.37;;;9.30;99.90;;;;;;5058097;28;20197;-91
2023/02/03 09:26:13;;;;;;;7.83;1.03;;;9.30;99.90;;;;;;5057388;28;20158;-91
2023/02/03 09:28:39;;;;;;;1.97;1.73;;;9.30;99.90;;;;;;5056413;28;20189;-94
2023/02/03 09:31:18;;;;;;;8.23;4.43;;;9.30;99.90;;;;;;5058787;28;20196;-93
2023/02/03 09:33:44;;;;;;;4.13;1.80;;;9.30;99.90;;;;;;5073278;28;20617;-93
2023/02/03 09:36:11;;;;;;;8.50;1.97;;;9.30;99.90;;;;;;5055491;28;20611;-90
2023/02/03 09:38:37;;;;;;;4.93;1.33;;;9.30;99.90;;;;;;5039586;28;20666;-94
2023/02/03 09:41:09;;;;;;;8.00;0.87;;;9.30;99.90;;;;;;5056635;28;20222;-90
2023/02/03 09:43:53;;;;;;;13.57;1.83;;;9.30;99.90;;;;;;5072909;28;20574;-90
2023/02/03 09:46:25;;;;;;;9.77;1.67;;;9.30;99.90;;;;;;5053804;28;20181;-89
2023/02/03 09:48:58;;;;;;;2.00;1.90;;;9.20;99.90;;;;;;5056504;28;20422;-90
2023/02/03 09:51:48;;;;;;;5.43;1.43;;;9.20;99.90;;;;;;5059854;28;20166;-91
2023/02/03 09:54:29;;;;;;;4.63;0.73;;;9.30;99.90;;;;;;5043212;28;20442;-94
2023/02/03 09:56:58;;;;;;;4.17;2.20;;;9.20;99.90;;;;;;5056553;28;20482;-93
2023/02/03 09:59:26;;;;;;;7.20;1.37;;;9.30;99.90;;;;;;5040476;28;20201;-93
2023/02/03 10:02:08;;;;;;;3.40;1.87;;;9.30;99.90;;;;;;5053688;28;20174;-84
2023/02/03 10:04:48;;;;;;;5.67;2.67;;;9.30;99.90;;;;;;5066328;28;20217;-92
2023/02/03 10:07:36;;;;;;;2.93;1.00;;;9.30;99.90;;;;;;5057015;28;20268;-93
2023/02/03 10:10:36;;;;;;;1.30;1.20;;;9.30;99.90;;;;;;5056937;28;20208;-90
2023/02/03 10:13:08;;;;;;;5.57;3.27;;;9.30;99.90;;;;;;5056093;28;20158;-89
2023/02/03 10:15:50;;;;;;;1.63;1.53;;;9.30;99.90;;;;;;5056802;28;20669;-90
2023/02/03 10:18:27;;;;;;;11.77;2.40;;;9.30;99.90;;;;;;5056727;28;20314;-93
2023/02/03 10:21:01;;;;;;;2.63;2.03;;;9.30;99.90;;;;;;5055809;28;20202;-91
2023/02/03 10:23:34;;;;;;;3.47;2.40;;;9.30;99.90;;;;;;5056251;28;20174;-89
2023/02/03 10:26:05;;;;;;;4.50;1.63;;;9.30;99.90;;;;;;5074840;28;20246;-92
2023/02/03 10:28:38;;;;;;;4.27;1.30;;;9.30;99.90;;;;;;5057602;28;20173;-91
2023/02/03 10:31:15;;;;;;;6.60;1.80;;;9.30;99.90;;;;;;5056631;28;20165;-92
2023/02/03 10:33:41;;;;;;;6.53;0.97;;;9.30;99.90;;;;;;5071338;28;20319;-90
2023/02/03 10:36:14;;;;;;;6.87;1.83;;;9.20;99.90;;;;;;5053417;28;20615;-95
2023/02/03 10:39:00;;;;;;;2.00;1.47;;;9.30;99.90;;;;;;5054921;28;20217;-91
2023/02/03 10:41:29;;;;;;;5.07;1.43;;;9.20;99.90;;;;;;5056978;28;20630;-90
2023/02/03 10:43:55;;;;;;;18.03;2.63;;;9.30;99.90;;;;;;5074102;28;20200;-90
2023/02/03 10:46:28;;;;;;;5.20;3.47;;;9.30;99.90;;;;;;5053558;28;20188;-91
2023/02/03 10:48:54;;;;;;;4.03;2.57;;;9.40;99.90;;;;;;5071296;28;20180;-93
2023/02/03 10:51:25;;;;;;;10.43;0.67;;;9.40;99.90;;;;;;5037570;28;20181;-90
2023/02/03 10:53:52;;;;;;;9.07;0.73;;;9.40;99.90;;;;;;5054860;28;20231;-90
2023/02/03 10:56:31;;;;;;;3.97;1.60;;;9.40;99.90;;;;;;5054200;28;20264;-93
2023/02/03 10:58:59;;;;;;;1.23;1.23;;;9.40;99.90;;;;;;5053344;28;20189;-90
2023/02/03 11:01:40;;;;;;;1.70;1.60;;;9.40;99.90;;;;;;5053905;28;20237;-87
2023/02/03 11:04:20;;;;;;;1.10;1.07;;;9.40;99.90;;;;;;5053263;28;20228;-86
2023/02/03 11:07:02;;;;;;;10.80;1.33;;;9.50;99.90;;;;;;5070842;28;20173;-85
2023/02/03 11:09:39;;;;;;;1.80;0.53;;;9.50;99.90;;;;;;5052949;28;20169;-87
2023/02/03 11:12:14;;;;;;;9.47;1.97;;;9.40;99.90;;;;;;5054530;28;20153;-85
2023/02/03 11:14:48;;;;;;;1.53;1.33;;;9.30;99.90;;;;;;5054793;28;20162;-86
2023/02/03 11:17:31;;;;;;;5.37;3.03;;;9.20;99.90;;;;;;5055141;28;20169;-88
2023/02/03 11:20:11;;;;;;;13.87;2.10;;;9.20;99.90;;;;;;5052580;28;20173;-84
2023/02/03 11:22:38;;;;;;;1.80;1.50;;;9.10;99.90;;;;;;5054054;28;20560;-87
2023/02/03 11:25:20;;;;;;;1.27;1.20;;;9.10;99.90;;;;;;5053943;28;20196;-89
2023/02/03 11:27:46;;;;;;;8.00;2.50;;;9.20;99.90;;;;;;5054025;28;20169;-87
2023/02/03 11:30:28;;;;;;;24.60;2.00;;;9.10;99.90;;;;;;5054785;28;20173;-88
2023/02/03 11:32:55;;;;;;;2.77;0.90;;;9.20;99.90;;;;;;5059483;28;20204;-91
2023/02/03 11:35:25;;;;;;;7.47;2.77;;;9.20;99.90;;;;;;5040184;28;20236;-87
2023/02/03 11:37:54;;;;;;;1.37;1.27;;;9.20;99.90;;;;;;5037380;28;20213;-86
2023/02/03 11:40:19;;;;;;;4.33;1.77;;;9.20;99.90;;;;;;5052329;28;20181;-85
2023/02/03 11:43:15;;;;;;;1.40;1.30;;;9.20;99.90;;;;;;5053334;28;20526;-90
2023/02/03 11:45:44;;;;;;;5.90;2.07;;;9.20;99.90;;;;;;5043558;28;20733;-83
2023/02/03 11:48:25;;;;;;;8.63;0.53;;;9.10;99.90;;;;;;5051640;28;20189;-83
2023/02/03 11:51:25;;;;;;;19.10;1.40;;;9.00;99.90;;;;;;5067579;28;20169;-83
2023/02/03 11:53:56;;;;;;;4.30;1.43;;;8.90;99.90;;;;;;5051598;28;20174;-84
2023/02/03 11:56:36;;;;;;;7.57;1.93;;;8.90;99.90;;;;;;5050982;28;20165;-88
2023/02/03 11:59:11;;;;;;;1.17;1.03;;;8.80;99.90;;;;;;5068189;28;20674;-87
2023/02/03 12:01:45;;;;;;;0.80;0.80;;;8.80;99.90;;;;;;5049457;28;20181;-91
2023/02/03 12:04:41;;;;;;;2.30;1.33;;;8.80;99.90;;;;;;5068568;28;20244;-82
2023/02/03 12:07:35;;;;;;;0.20;0.20;;;8.80;99.90;;;;;;5051875;28;20241;-85
2023/02/03 12:10:00;;;;;;;7.53;1.07;;;8.80;99.90;;;;;;5071397;28;20161;-87
2023/02/03 12:13:08;;;;;;;2.27;0.43;;;8.80;99.90;;;;;;5073413;28;20856;-85
2023/02/03 12:16:01;;;;;;;3.80;1.20;;;8.90;99.90;;;;;;5021558;28;20200;-90
2023/02/03 12:18:56;;;;;;;7.27;2.63;;;8.90;99.90;;;;;;5055609;28;20232;-87
2023/02/03 12:21:46;;;;;;;5.50;1.50;;;8.90;99.90;;;;;;5054372;28;20322;-86
2023/02/03 12:24:26;;;;;;;8.63;2.20;;;9.10;99.90;;;;;;5073180;28;20169;-86
2023/02/03 12:26:58;;;;;;;9.67;2.30;;;9.30;99.90;;;;;;5055436;28;20169;-87
2023/02/03 12:29:31;;;;;;;9.43;5.23;;;9.50;99.90;;;;;;5072546;28;20177;-88
2023/02/03 12:32:11;;;;;;;6.20;2.33;;;9.60;99.90;;;;;;5055010;28;20166;-89
2023/02/03 12:34:43;;;;;;;15.33;2.73;;;9.70;99.90;;;;;;5055302;28;20161;-85
2023/02/03 12:37:17;;;;;;;2.00;1.80;;;9.80;99.90;;;;;;5074105;28;20793;-85
2023/02/03 12:39:52;;;;;;;2.00;1.87;;;9.70;99.90;;;;;;5055096;28;20287;-87
2023/02/03 12:42:27;;;;;;;4.47;1.97;;;9.70;99.90;;;;;;5071617;28;20200;-86
2023/02/03 12:45:07;;;;;;;18.77;2.77;;;9.60;99.90;;;;;;5054701;28;20195;-88
2023/02/03 12:47:43;;;;;;;2.03;1.73;;;9.60;99.90;;;;;;5073957;28;20235;-86
2023/02/03 12:50:26;;;;;;;8.70;3.27;;;9.50;99.90;;;;;;5056540;28;20187;-88
2023/02/03 12:53:19;;;;;;;14.83;3.43;;;9.60;99.90;;;;;;5054856;28;20480;-89
2023/02/03 12:55:54;;;;;;;6.77;2.13;;;9.60;99.90;;;;;;5072570;28;20208;-86
2023/02/03 12:58:37;;;;;;;10.73;4.00;;;9.60;99.90;;;;;;5053752;28;20276;-89
2023/02/03 13:01:07;;;;;;;5.70;2.93;;;9.60;99.90;;;;;;5070822;28;20182;-85
2023/02/03 13:03:45;;;;;;;12.03;3.67;;;9.70;99.90;;;;;;5053019;28;20773;-85
2023/02/03 13:06:22;;;;;;;18.10;3.50;;;9.70;99.90;;;;;;5052896;28;20656;-84
2023/02/03 13:09:00;;;;;;;6.97;1.60;;;9.80;99.90;;;;;;5070773;28;20391;-88
2023/02/03 13:11:49;;;;;;;5.97;1.57;;;9.90;99.90;;;;;;5070474;28;20631;-85
2023/02/03 13:14:34;;;;;;;13.03;5.33;;;10.00;99.90;;;;;;5070429;28;20170;-84
2023/02/03 13:17:12;;;;;;;3.67;3.37;;;9.90;99.90;;;;;;5070213;28;20260;-89